CheckWX is a tool to help pilots better visualize weather data.  It is not intended as a substitute for an official pre-flight weather briefing.

21:15:18 UTC

KUNU METAR
Dodge County Airport
Juneau, Wisconsin, USA
Current

20 mins ago

KUNU 192055Z AUTO 16003KT 10SM SCT019 SCT024 BKN120 23/19 A3005 RMK AO2 T02250189 TSNO
Observed
Sep-19 @ 20:55 UTC
Wind
  • 160° at 3 KTS
Visibility
10 SM
Flight Rules
VFR
Cloud Levels
  • Scattered at 1,900' AGL
  • Scattered at 2,400' AGL
  • Broken at 12,000' AGL
Temperature
23°C / 73°F
Dewpoint
19°C / 66°F
Humidity
78%
Altimeter
30.05" Hg
Pressure
1017.62 hPa
Previous

1 hour ago

KUNU 191955Z AUTO 14005KT 10SM SCT015 23/19 A3006 RMK AO2 T02270192 TSNO
Observed
Sep-19 @ 19:55 UTC
Wind
  • 140° at 5 KTS
Visibility
10 SM
Flight Rules
VFR
Cloud Levels
  • Scattered at 1,500' AGL
Temperature
23°C / 73°F
Dewpoint
19°C / 66°F
Humidity
78%
Altimeter
30.06" Hg
Pressure
1017.92 hPa
Previous

3 hours ago

KUNU 191815Z AUTO 12003KT 10SM SCT035 21/19 A3007 RMK AO2 T02110191 TSNO
Observed
Sep-19 @ 18:15 UTC
Wind
  • 120° at 3 KTS
Visibility
10 SM
Flight Rules
VFR
Cloud Levels
  • Scattered at 3,500' AGL
Temperature
21°C / 70°F
Dewpoint
19°C / 66°F
Humidity
88%
Altimeter
30.07" Hg
Pressure
1018.32 hPa